Search for airport 
image banner adimage banner adimage banner ad
image banner ad

0Q5 - Shelter Cove

Located in Shelter Cove, United States

ICAO - 0Q5, IATA -

Data provided by Airmate  

General information

Coordinates: N40°1'41" W124°4'28"
Elevation is 73 feet MSL.
Magnetic variation is 17° East
View others Airports in California

Operational data

Special qualification required
Current time UTC:
Current local time:
Weather at : KFOT - Rohnerville ( 59 km )
METAR: KFOT 240750Z AUTO 00000KT 4SM OVC002 12/12 A3003 RMK AO1
View NOTAMs / SUP AIP / TFR affecting this airport [VIEW]
Communications frequencies: [VIEW]

Runways:

RWY identifierQFULength (ft)Width (ft)SurfaceLDA (ft)
12340760ASPH
30340760ASPH

Airport contact information

Address: Shelter Cove United States

Satellite view of 0Q5